sensor_id;sensor_type;location;lat;lon;timestamp;P1;durP1;ratioP1;P2;durP2;ratioP2
7173;SDS011;3628;48.654;8.932;2024-03-06T00:00:40;2.40;;;1.60;;
7173;SDS011;3628;48.654;8.932;2024-03-06T00:03:06;3.17;;;1.77;;
7173;SDS011;3628;48.654;8.932;2024-03-06T00:05:31;3.47;;;1.57;;
7173;SDS011;3628;48.654;8.932;2024-03-06T00:07:57;2.07;;;1.40;;
7173;SDS011;3628;48.654;8.932;2024-03-06T00:10:22;2.00;;;1.50;;
7173;SDS011;3628;48.654;8.932;2024-03-06T00:12:48;3.70;;;1.50;;
7173;SDS011;3628;48.654;8.932;2024-03-06T00:15:13;1.60;;;1.40;;
7173;SDS011;3628;48.654;8.932;2024-03-06T00:17:39;2.13;;;1.43;;
7173;SDS011;3628;48.654;8.932;2024-03-06T00:20:05;3.13;;;1.47;;
7173;SDS011;3628;48.654;8.932;2024-03-06T00:22:31;3.13;;;1.70;;
7173;SDS011;3628;48.654;8.932;2024-03-06T00:24:56;2.33;;;1.57;;
7173;SDS011;3628;48.654;8.932;2024-03-06T00:27:22;7.00;;;1.70;;
7173;SDS011;3628;48.654;8.932;2024-03-06T00:29:47;3.33;;;2.00;;
7173;SDS011;3628;48.654;8.932;2024-03-06T00:32:13;4.03;;;1.90;;
7173;SDS011;3628;48.654;8.932;2024-03-06T00:34:39;4.00;;;1.90;;
7173;SDS011;3628;48.654;8.932;2024-03-06T00:37:05;2.80;;;2.00;;
7173;SDS011;3628;48.654;8.932;2024-03-06T00:39:30;2.83;;;1.83;;
7173;SDS011;3628;48.654;8.932;2024-03-06T00:41:56;1.70;;;1.60;;
7173;SDS011;3628;48.654;8.932;2024-03-06T00:44:21;2.63;;;1.80;;
7173;SDS011;3628;48.654;8.932;2024-03-06T00:46:48;3.00;;;1.90;;
7173;SDS011;3628;48.654;8.932;2024-03-06T00:49:13;2.13;;;1.83;;
7173;SDS011;3628;48.654;8.932;2024-03-06T00:51:39;2.53;;;1.87;;
7173;SDS011;3628;48.654;8.932;2024-03-06T00:54:04;5.13;;;1.90;;
7173;SDS011;3628;48.654;8.932;2024-03-06T00:56:30;3.13;;;2.37;;
7173;SDS011;3628;48.654;8.932;2024-03-06T00:58:56;4.07;;;1.67;;
7173;SDS011;3628;48.654;8.932;2024-03-06T01:01:21;3.17;;;2.10;;
7173;SDS011;3628;48.654;8.932;2024-03-06T01:03:47;2.23;;;1.97;;
7173;SDS011;3628;48.654;8.932;2024-03-06T01:06:12;2.70;;;1.87;;
7173;SDS011;3628;48.654;8.932;2024-03-06T01:08:38;2.23;;;1.70;;
7173;SDS011;3628;48.654;8.932;2024-03-06T01:11:04;2.20;;;1.77;;
7173;SDS011;3628;48.654;8.932;2024-03-06T01:13:30;2.10;;;1.40;;
7173;SDS011;3628;48.654;8.932;2024-03-06T01:15:56;2.30;;;1.60;;
7173;SDS011;3628;48.654;8.932;2024-03-06T01:18:21;1.77;;;1.60;;
7173;SDS011;3628;48.654;8.932;2024-03-06T01:20:47;2.70;;;1.53;;
7173;SDS011;3628;48.654;8.932;2024-03-06T01:23:12;1.90;;;1.50;;
7173;SDS011;3628;48.654;8.932;2024-03-06T01:25:38;2.43;;;1.70;;
7173;SDS011;3628;48.654;8.932;2024-03-06T01:28:03;3.37;;;1.60;;
7173;SDS011;3628;48.654;8.932;2024-03-06T01:30:29;4.50;;;1.80;;
7173;SDS011;3628;48.654;8.932;2024-03-06T01:32:55;2.50;;;1.80;;
7173;SDS011;3628;48.654;8.932;2024-03-06T01:35:20;3.07;;;1.50;;
7173;SDS011;3628;48.654;8.932;2024-03-06T01:37:46;2.80;;;1.77;;
7173;SDS011;3628;48.654;8.932;2024-03-06T01:40:11;2.13;;;1.63;;
7173;SDS011;3628;48.654;8.932;2024-03-06T01:42:37;2.17;;;1.80;;
7173;SDS011;3628;48.654;8.932;2024-03-06T01:45:03;1.70;;;1.60;;
7173;SDS011;3628;48.654;8.932;2024-03-06T01:47:29;3.43;;;1.50;;
7173;SDS011;3628;48.654;8.932;2024-03-06T01:49:55;1.87;;;1.63;;
7173;SDS011;3628;48.654;8.932;2024-03-06T01:52:20;2.83;;;1.60;;
7173;SDS011;3628;48.654;8.932;2024-03-06T01:54:47;2.63;;;1.67;;
7173;SDS011;3628;48.654;8.932;2024-03-06T01:57:14;1.83;;;1.37;;
7173;SDS011;3628;48.654;8.932;2024-03-06T01:59:42;1.47;;;1.30;;
7173;SDS011;3628;48.654;8.932;2024-03-06T02:02:08;2.70;;;1.70;;
7173;SDS011;3628;48.654;8.932;2024-03-06T02:04:36;3.57;;;1.70;;
7173;SDS011;3628;48.654;8.932;2024-03-06T02:07:02;1.57;;;1.07;;
7173;SDS011;3628;48.654;8.932;2024-03-06T02:09:27;3.47;;;1.53;;
7173;SDS011;3628;48.654;8.932;2024-03-06T02:11:53;1.80;;;1.30;;
7173;SDS011;3628;48.654;8.932;2024-03-06T02:14:19;2.80;;;1.50;;
7173;SDS011;3628;48.654;8.932;2024-03-06T02:16:44;2.27;;;1.20;;
7173;SDS011;3628;48.654;8.932;2024-03-06T02:19:10;2.83;;;1.30;;
7173;SDS011;3628;48.654;8.932;2024-03-06T02:21:35;1.50;;;1.30;;
7173;SDS011;3628;48.654;8.932;2024-03-06T02:24:01;2.70;;;1.30;;
7173;SDS011;3628;48.654;8.932;2024-03-06T02:26:27;2.30;;;1.57;;
7173;SDS011;3628;48.654;8.932;2024-03-06T02:28:53;1.83;;;1.20;;
7173;SDS011;3628;48.654;8.932;2024-03-06T02:31:20;3.00;;;1.13;;
7173;SDS011;3628;48.654;8.932;2024-03-06T02:33:47;1.60;;;1.50;;
7173;SDS011;3628;48.654;8.932;2024-03-06T02:36:16;1.60;;;1.30;;
7173;SDS011;3628;48.654;8.932;2024-03-06T02:38:42;2.87;;;1.20;;
7173;SDS011;3628;48.654;8.932;2024-03-06T02:41:08;2.10;;;1.50;;
7173;SDS011;3628;48.654;8.932;2024-03-06T02:43:35;1.47;;;1.37;;
7173;SDS011;3628;48.654;8.932;2024-03-06T02:46:01;2.53;;;1.43;;
7173;SDS011;3628;48.654;8.932;2024-03-06T02:48:27;2.27;;;1.40;;
7173;SDS011;3628;48.654;8.932;2024-03-06T02:50:53;3.10;;;1.50;;
7173;SDS011;3628;48.654;8.932;2024-03-06T02:53:19;2.17;;;1.40;;
7173;SDS011;3628;48.654;8.932;2024-03-06T02:55:45;2.00;;;1.60;;
7173;SDS011;3628;48.654;8.932;2024-03-06T02:58:10;1.67;;;1.33;;
7173;SDS011;3628;48.654;8.932;2024-03-06T03:00:36;2.30;;;1.60;;
7173;SDS011;3628;48.654;8.932;2024-03-06T03:03:04;2.50;;;2.00;;
7173;SDS011;3628;48.654;8.932;2024-03-06T03:05:29;4.67;;;1.87;;
7173;SDS011;3628;48.654;8.932;2024-03-06T03:07:55;2.53;;;1.90;;
7173;SDS011;3628;48.654;8.932;2024-03-06T03:10:20;3.30;;;1.60;;
7173;SDS011;3628;48.654;8.932;2024-03-06T03:12:46;3.57;;;2.20;;
7173;SDS011;3628;48.654;8.932;2024-03-06T03:15:11;1.93;;;1.67;;
7173;SDS011;3628;48.654;8.932;2024-03-06T03:17:37;1.73;;;1.50;;
7173;SDS011;3628;48.654;8.932;2024-03-06T03:20:02;1.63;;;1.50;;
7173;SDS011;3628;48.654;8.932;2024-03-06T03:22:38;2.07;;;1.60;;
7173;SDS011;3628;48.654;8.932;2024-03-06T03:25:07;1.73;;;1.60;;
7173;SDS011;3628;48.654;8.932;2024-03-06T03:27:40;3.23;;;1.90;;
7173;SDS011;3628;48.654;8.932;2024-03-06T03:30:09;2.93;;;1.40;;
7173;SDS011;3628;48.654;8.932;2024-03-06T03:32:36;1.53;;;1.10;;
7173;SDS011;3628;48.654;8.932;2024-03-06T03:35:02;1.17;;;0.83;;
7173;SDS011;3628;48.654;8.932;2024-03-06T03:37:30;3.93;;;1.50;;
7173;SDS011;3628;48.654;8.932;2024-03-06T03:39:56;1.70;;;1.20;;
7173;SDS011;3628;48.654;8.932;2024-03-06T03:42:21;3.03;;;1.17;;
7173;SDS011;3628;48.654;8.932;2024-03-06T03:44:47;1.77;;;1.30;;
7173;SDS011;3628;48.654;8.932;2024-03-06T03:47:12;1.47;;;1.10;;
7173;SDS011;3628;48.654;8.932;2024-03-06T03:49:38;2.13;;;1.33;;
7173;SDS011;3628;48.654;8.932;2024-03-06T03:52:03;2.40;;;1.30;;
7173;SDS011;3628;48.654;8.932;2024-03-06T03:54:29;1.60;;;1.30;;
7173;SDS011;3628;48.654;8.932;2024-03-06T03:56:55;2.03;;;1.30;;
7173;SDS011;3628;48.654;8.932;2024-03-06T03:59:20;2.53;;;1.20;;
7173;SDS011;3628;48.654;8.932;2024-03-06T04:01:46;1.57;;;1.10;;
7173;SDS011;3628;48.654;8.932;2024-03-06T04:04:12;1.60;;;1.30;;
7173;SDS011;3628;48.654;8.932;2024-03-06T04:06:37;2.60;;;1.37;;
7173;SDS011;3628;48.654;8.932;2024-03-06T04:09:03;1.87;;;1.40;;
7173;SDS011;3628;48.654;8.932;2024-03-06T04:11:30;3.43;;;1.70;;
7173;SDS011;3628;48.654;8.932;2024-03-06T04:13:57;2.00;;;1.73;;
7173;SDS011;3628;48.654;8.932;2024-03-06T04:16:23;5.47;;;2.03;;
7173;SDS011;3628;48.654;8.932;2024-03-06T04:18:48;3.13;;;2.30;;
7173;SDS011;3628;48.654;8.932;2024-03-06T04:21:14;4.20;;;2.50;;
7173;SDS011;3628;48.654;8.932;2024-03-06T04:23:40;2.60;;;1.83;;
7173;SDS011;3628;48.654;8.932;2024-03-06T04:26:05;3.23;;;1.70;;
7173;SDS011;3628;48.654;8.932;2024-03-06T04:28:31;2.43;;;1.80;;
7173;SDS011;3628;48.654;8.932;2024-03-06T04:30:56;2.90;;;1.80;;
7173;SDS011;3628;48.654;8.932;2024-03-06T04:33:22;3.37;;;1.77;;
7173;SDS011;3628;48.654;8.932;2024-03-06T04:35:48;2.47;;;1.70;;
7173;SDS011;3628;48.654;8.932;2024-03-06T04:38:13;4.17;;;1.80;;
7173;SDS011;3628;48.654;8.932;2024-03-06T04:40:39;2.70;;;1.60;;
7173;SDS011;3628;48.654;8.932;2024-03-06T04:43:05;2.43;;;1.80;;
7173;SDS011;3628;48.654;8.932;2024-03-06T04:45:32;2.57;;;1.40;;
7173;SDS011;3628;48.654;8.932;2024-03-06T04:47:58;2.60;;;1.33;;
7173;SDS011;3628;48.654;8.932;2024-03-06T04:50:23;1.33;;;1.17;;
7173;SDS011;3628;48.654;8.932;2024-03-06T04:52:49;3.00;;;1.40;;
7173;SDS011;3628;48.654;8.932;2024-03-06T04:55:14;3.27;;;1.40;;
7173;SDS011;3628;48.654;8.932;2024-03-06T04:57:45;2.10;;;1.30;;
7173;SDS011;3628;48.654;8.932;2024-03-06T05:00:11;2.70;;;1.13;;
7173;SDS011;3628;48.654;8.932;2024-03-06T05:02:37;1.90;;;1.20;;
7173;SDS011;3628;48.654;8.932;2024-03-06T05:05:03;3.67;;;1.67;;
7173;SDS011;3628;48.654;8.932;2024-03-06T05:07:29;2.50;;;1.60;;
7173;SDS011;3628;48.654;8.932;2024-03-06T05:09:56;1.67;;;1.57;;
7173;SDS011;3628;48.654;8.932;2024-03-06T05:12:23;2.23;;;1.60;;
7173;SDS011;3628;48.654;8.932;2024-03-06T05:14:50;1.90;;;1.37;;
7173;SDS011;3628;48.654;8.932;2024-03-06T05:17:16;2.13;;;1.80;;
7173;SDS011;3628;48.654;8.932;2024-03-06T05:19:42;2.40;;;1.63;;
7173;SDS011;3628;48.654;8.932;2024-03-06T05:22:08;2.60;;;2.00;;
7173;SDS011;3628;48.654;8.932;2024-03-06T05:24:33;2.60;;;2.10;;
7173;SDS011;3628;48.654;8.932;2024-03-06T05:26:59;3.00;;;2.00;;
7173;SDS011;3628;48.654;8.932;2024-03-06T05:29:24;3.20;;;2.20;;
7173;SDS011;3628;48.654;8.932;2024-03-06T05:31:51;3.50;;;2.17;;
7173;SDS011;3628;48.654;8.932;2024-03-06T05:34:16;2.33;;;2.00;;
7173;SDS011;3628;48.654;8.932;2024-03-06T05:36:43;3.20;;;2.47;;
7173;SDS011;3628;48.654;8.932;2024-03-06T05:39:08;3.57;;;2.70;;
7173;SDS011;3628;48.654;8.932;2024-03-06T05:41:37;6.73;;;4.53;;
7173;SDS011;3628;48.654;8.932;2024-03-06T05:44:07;4.70;;;2.70;;
7173;SDS011;3628;48.654;8.932;2024-03-06T05:46:32;3.00;;;2.27;;
7173;SDS011;3628;48.654;8.932;2024-03-06T05:48:58;3.53;;;2.47;;
7173;SDS011;3628;48.654;8.932;2024-03-06T05:51:24;3.20;;;2.27;;
7173;SDS011;3628;48.654;8.932;2024-03-06T05:53:49;2.73;;;1.80;;
7173;SDS011;3628;48.654;8.932;2024-03-06T05:56:16;2.37;;;1.33;;
7173;SDS011;3628;48.654;8.932;2024-03-06T05:58:43;2.20;;;1.53;;
7173;SDS011;3628;48.654;8.932;2024-03-06T06:01:11;5.03;;;1.90;;
7173;SDS011;3628;48.654;8.932;2024-03-06T06:03:36;4.30;;;1.57;;
7173;SDS011;3628;48.654;8.932;2024-03-06T06:06:03;1.67;;;1.50;;
7173;SDS011;3628;48.654;8.932;2024-03-06T06:08:29;2.93;;;1.60;;
7173;SDS011;3628;48.654;8.932;2024-03-06T06:10:55;1.53;;;1.30;;
7173;SDS011;3628;48.654;8.932;2024-03-06T06:13:21;6.33;;;1.67;;
7173;SDS011;3628;48.654;8.932;2024-03-06T06:15:46;1.77;;;1.20;;
7173;SDS011;3628;48.654;8.932;2024-03-06T06:18:12;3.47;;;1.40;;
7173;SDS011;3628;48.654;8.932;2024-03-06T06:20:37;3.43;;;1.60;;
7173;SDS011;3628;48.654;8.932;2024-03-06T06:23:03;2.90;;;1.53;;
7173;SDS011;3628;48.654;8.932;2024-03-06T06:25:29;3.63;;;2.00;;
7173;SDS011;3628;48.654;8.932;2024-03-06T06:27:54;4.00;;;1.87;;
7173;SDS011;3628;48.654;8.932;2024-03-06T06:30:20;3.17;;;1.70;;
7173;SDS011;3628;48.654;8.932;2024-03-06T06:32:46;4.00;;;1.73;;
7173;SDS011;3628;48.654;8.932;2024-03-06T06:35:11;1.87;;;1.57;;
7173;SDS011;3628;48.654;8.932;2024-03-06T06:37:38;2.30;;;1.77;;
7173;SDS011;3628;48.654;8.932;2024-03-06T06:40:07;3.43;;;1.60;;
7173;SDS011;3628;48.654;8.932;2024-03-06T06:42:34;2.83;;;1.50;;
7173;SDS011;3628;48.654;8.932;2024-03-06T06:45:00;3.80;;;1.77;;
7173;SDS011;3628;48.654;8.932;2024-03-06T06:47:27;3.37;;;1.60;;
7173;SDS011;3628;48.654;8.932;2024-03-06T06:49:53;2.73;;;1.43;;
7173;SDS011;3628;48.654;8.932;2024-03-06T06:52:18;2.93;;;1.60;;
7173;SDS011;3628;48.654;8.932;2024-03-06T06:54:44;2.73;;;2.00;;
7173;SDS011;3628;48.654;8.932;2024-03-06T06:57:09;3.90;;;1.83;;
7173;SDS011;3628;48.654;8.932;2024-03-06T06:59:35;2.50;;;1.50;;
7173;SDS011;3628;48.654;8.932;2024-03-06T07:02:01;1.83;;;1.50;;
7173;SDS011;3628;48.654;8.932;2024-03-06T07:04:27;3.90;;;2.20;;
7173;SDS011;3628;48.654;8.932;2024-03-06T07:06:53;4.90;;;2.00;;
7173;SDS011;3628;48.654;8.932;2024-03-06T07:09:19;2.90;;;1.60;;
7173;SDS011;3628;48.654;8.932;2024-03-06T07:11:44;3.07;;;1.80;;
7173;SDS011;3628;48.654;8.932;2024-03-06T07:14:11;3.30;;;2.13;;
7173;SDS011;3628;48.654;8.932;2024-03-06T07:16:44;2.33;;;1.77;;
7173;SDS011;3628;48.654;8.932;2024-03-06T07:19:10;4.00;;;2.30;;
7173;SDS011;3628;48.654;8.932;2024-03-06T07:21:36;2.43;;;1.70;;
7173;SDS011;3628;48.654;8.932;2024-03-06T07:24:08;3.40;;;2.07;;
7173;SDS011;3628;48.654;8.932;2024-03-06T07:27:13;3.20;;;2.00;;
7173;SDS011;3628;48.654;8.932;2024-03-06T07:29:38;3.87;;;1.70;;
7173;SDS011;3628;48.654;8.932;2024-03-06T07:32:04;2.80;;;1.80;;
7173;SDS011;3628;48.654;8.932;2024-03-06T07:34:32;2.40;;;1.73;;
7173;SDS011;3628;48.654;8.932;2024-03-06T07:36:59;3.17;;;1.80;;
7173;SDS011;3628;48.654;8.932;2024-03-06T07:39:25;6.73;;;2.03;;
7173;SDS011;3628;48.654;8.932;2024-03-06T07:41:51;4.37;;;1.73;;
7173;SDS011;3628;48.654;8.932;2024-03-06T07:44:16;2.43;;;1.77;;
7173;SDS011;3628;48.654;8.932;2024-03-06T07:46:42;5.17;;;1.93;;
7173;SDS011;3628;48.654;8.932;2024-03-06T07:49:08;2.00;;;1.83;;
7173;SDS011;3628;48.654;8.932;2024-03-06T07:51:33;3.73;;;1.40;;
7173;SDS011;3628;48.654;8.932;2024-03-06T07:54:00;1.67;;;1.40;;
7173;SDS011;3628;48.654;8.932;2024-03-06T07:56:26;3.90;;;1.70;;
7173;SDS011;3628;48.654;8.932;2024-03-06T07:58:53;3.70;;;1.73;;
7173;SDS011;3628;48.654;8.932;2024-03-06T08:01:19;5.00;;;1.80;;
7173;SDS011;3628;48.654;8.932;2024-03-06T08:03:45;3.80;;;1.63;;
7173;SDS011;3628;48.654;8.932;2024-03-06T08:06:11;3.13;;;1.80;;
7173;SDS011;3628;48.654;8.932;2024-03-06T08:08:40;2.70;;;1.73;;
7173;SDS011;3628;48.654;8.932;2024-03-06T08:11:12;4.50;;;1.90;;
7173;SDS011;3628;48.654;8.932;2024-03-06T08:13:38;2.87;;;1.50;;
7173;SDS011;3628;48.654;8.932;2024-03-06T08:16:07;2.60;;;1.40;;
7173;SDS011;3628;48.654;8.932;2024-03-06T08:18:33;2.23;;;1.60;;
7173;SDS011;3628;48.654;8.932;2024-03-06T08:21:00;1.57;;;1.40;;
7173;SDS011;3628;48.654;8.932;2024-03-06T08:23:25;3.03;;;1.50;;
7173;SDS011;3628;48.654;8.932;2024-03-06T08:25:51;3.20;;;2.10;;
7173;SDS011;3628;48.654;8.932;2024-03-06T08:28:17;4.70;;;2.10;;
7173;SDS011;3628;48.654;8.932;2024-03-06T08:30:43;4.73;;;1.77;;
7173;SDS011;3628;48.654;8.932;2024-03-06T08:33:09;5.93;;;2.03;;
7173;SDS011;3628;48.654;8.932;2024-03-06T08:35:35;6.50;;;3.10;;
7173;SDS011;3628;48.654;8.932;2024-03-06T08:38:00;6.73;;;2.40;;
7173;SDS011;3628;48.654;8.932;2024-03-06T08:40:26;5.93;;;2.60;;
7173;SDS011;3628;48.654;8.932;2024-03-06T08:42:53;6.20;;;2.23;;
7173;SDS011;3628;48.654;8.932;2024-03-06T08:45:19;3.80;;;2.60;;
7173;SDS011;3628;48.654;8.932;2024-03-06T08:47:45;3.43;;;1.73;;
7173;SDS011;3628;48.654;8.932;2024-03-06T08:50:11;3.90;;;1.80;;
7173;SDS011;3628;48.654;8.932;2024-03-06T08:52:38;2.80;;;1.60;;
7173;SDS011;3628;48.654;8.932;2024-03-06T08:55:04;5.70;;;2.57;;
7173;SDS011;3628;48.654;8.932;2024-03-06T08:57:30;4.37;;;2.43;;
7173;SDS011;3628;48.654;8.932;2024-03-06T08:59:57;5.50;;;2.67;;
7173;SDS011;3628;48.654;8.932;2024-03-06T09:02:23;3.43;;;1.73;;
7173;SDS011;3628;48.654;8.932;2024-03-06T09:04:48;4.00;;;1.53;;
7173;SDS011;3628;48.654;8.932;2024-03-06T09:07:16;3.77;;;1.57;;
7173;SDS011;3628;48.654;8.932;2024-03-06T09:09:42;1.73;;;1.43;;
7173;SDS011;3628;48.654;8.932;2024-03-06T09:12:08;2.77;;;1.33;;
7173;SDS011;3628;48.654;8.932;2024-03-06T09:14:39;3.27;;;1.13;;
7173;SDS011;3628;48.654;8.932;2024-03-06T09:17:06;2.33;;;1.30;;
7173;SDS011;3628;48.654;8.932;2024-03-06T09:19:34;3.10;;;1.50;;
7173;SDS011;3628;48.654;8.932;2024-03-06T09:22:00;2.40;;;1.23;;
7173;SDS011;3628;48.654;8.932;2024-03-06T09:24:26;2.07;;;1.40;;
7173;SDS011;3628;48.654;8.932;2024-03-06T09:26:51;2.40;;;1.50;;
7173;SDS011;3628;48.654;8.932;2024-03-06T09:29:17;2.17;;;1.50;;
7173;SDS011;3628;48.654;8.932;2024-03-06T09:31:44;2.53;;;1.70;;
7173;SDS011;3628;48.654;8.932;2024-03-06T09:34:10;4.10;;;1.90;;
7173;SDS011;3628;48.654;8.932;2024-03-06T09:36:37;2.00;;;1.63;;
7173;SDS011;3628;48.654;8.932;2024-03-06T09:39:04;3.20;;;2.00;;
7173;SDS011;3628;48.654;8.932;2024-03-06T09:41:29;3.33;;;1.90;;
7173;SDS011;3628;48.654;8.932;2024-03-06T09:43:55;3.57;;;1.97;;
7173;SDS011;3628;48.654;8.932;2024-03-06T09:46:21;2.83;;;2.10;;
7173;SDS011;3628;48.654;8.932;2024-03-06T09:48:47;2.97;;;2.57;;
7173;SDS011;3628;48.654;8.932;2024-03-06T09:51:14;4.97;;;3.40;;
7173;SDS011;3628;48.654;8.932;2024-03-06T09:53:40;6.97;;;3.43;;
7173;SDS011;3628;48.654;8.932;2024-03-06T09:56:08;4.90;;;2.70;;
7173;SDS011;3628;48.654;8.932;2024-03-06T09:58:35;3.07;;;2.30;;
7173;SDS011;3628;48.654;8.932;2024-03-06T10:01:01;3.03;;;2.30;;
7173;SDS011;3628;48.654;8.932;2024-03-06T10:03:32;2.50;;;2.30;;
7173;SDS011;3628;48.654;8.932;2024-03-06T10:06:01;3.73;;;2.23;;
7173;SDS011;3628;48.654;8.932;2024-03-06T10:08:27;4.63;;;2.33;;
7173;SDS011;3628;48.654;8.932;2024-03-06T10:10:53;6.60;;;2.43;;
7173;SDS011;3628;48.654;8.932;2024-03-06T10:13:22;3.37;;;2.27;;
7173;SDS011;3628;48.654;8.932;2024-03-06T10:16:02;3.60;;;2.10;;
7173;SDS011;3628;48.654;8.932;2024-03-06T10:18:29;2.83;;;2.10;;
7173;SDS011;3628;48.654;8.932;2024-03-06T10:20:56;2.93;;;2.30;;
7173;SDS011;3628;48.654;8.932;2024-03-06T10:23:22;2.63;;;2.30;;
7173;SDS011;3628;48.654;8.932;2024-03-06T10:25:49;4.87;;;2.20;;
7173;SDS011;3628;48.654;8.932;2024-03-06T10:28:18;6.77;;;2.77;;
7173;SDS011;3628;48.654;8.932;2024-03-06T10:30:45;3.10;;;2.50;;
7173;SDS011;3628;48.654;8.932;2024-03-06T10:33:11;4.73;;;2.63;;
7173;SDS011;3628;48.654;8.932;2024-03-06T10:35:40;4.03;;;2.40;;
7173;SDS011;3628;48.654;8.932;2024-03-06T10:38:07;3.43;;;2.53;;
7173;SDS011;3628;48.654;8.932;2024-03-06T10:40:37;3.10;;;2.73;;
7173;SDS011;3628;48.654;8.932;2024-03-06T10:43:05;3.30;;;2.73;;
7173;SDS011;3628;48.654;8.932;2024-03-06T10:45:39;4.37;;;3.20;;
7173;SDS011;3628;48.654;8.932;2024-03-06T10:48:07;5.83;;;3.70;;
7173;SDS011;3628;48.654;8.932;2024-03-06T10:50:34;3.80;;;2.90;;
7173;SDS011;3628;48.654;8.932;2024-03-06T10:53:01;5.83;;;3.67;;
7173;SDS011;3628;48.654;8.932;2024-03-06T10:55:29;4.47;;;3.70;;
7173;SDS011;3628;48.654;8.932;2024-03-06T10:57:58;3.83;;;3.33;;
7173;SDS011;3628;48.654;8.932;2024-03-06T11:00:24;5.10;;;3.93;;
7173;SDS011;3628;48.654;8.932;2024-03-06T11:02:52;4.53;;;3.70;;
7173;SDS011;3628;48.654;8.932;2024-03-06T11:05:19;4.40;;;4.00;;
7173;SDS011;3628;48.654;8.932;2024-03-06T11:07:44;6.00;;;3.87;;
7173;SDS011;3628;48.654;8.932;2024-03-06T11:20:17;4.93;;;4.40;;
7173;SDS011;3628;48.654;8.932;2024-03-06T11:28:19;6.97;;;5.20;;
7173;SDS011;3628;48.654;8.932;2024-03-06T11:30:46;6.10;;;4.90;;
7173;SDS011;3628;48.654;8.932;2024-03-06T11:33:15;7.03;;;5.90;;
7173;SDS011;3628;48.654;8.932;2024-03-06T11:38:46;9.53;;;6.30;;
7173;SDS011;3628;48.654;8.932;2024-03-06T11:41:12;8.30;;;6.23;;
7173;SDS011;3628;48.654;8.932;2024-03-06T11:43:44;7.17;;;6.47;;
7173;SDS011;3628;48.654;8.932;2024-03-06T11:46:10;9.47;;;7.60;;
7173;SDS011;3628;48.654;8.932;2024-03-06T11:48:36;9.77;;;7.70;;
7173;SDS011;3628;48.654;8.932;2024-03-06T11:51:02;8.63;;;7.07;;
7173;SDS011;3628;48.654;8.932;2024-03-06T11:53:32;8.17;;;6.53;;
7173;SDS011;3628;48.654;8.932;2024-03-06T11:55:59;8.40;;;6.67;;
7173;SDS011;3628;48.654;8.932;2024-03-06T11:58:25;9.27;;;7.53;;
7173;SDS011;3628;48.654;8.932;2024-03-06T12:00:51;8.13;;;7.30;;
7173;SDS011;3628;48.654;8.932;2024-03-06T12:03:18;9.00;;;6.37;;
7173;SDS011;3628;48.654;8.932;2024-03-06T12:05:44;10.60;;;7.10;;
7173;SDS011;3628;48.654;8.932;2024-03-06T12:08:11;9.20;;;7.20;;
7173;SDS011;3628;48.654;8.932;2024-03-06T12:10:37;10.57;;;6.97;;
7173;SDS011;3628;48.654;8.932;2024-03-06T12:13:04;13.53;;;8.83;;
7173;SDS011;3628;48.654;8.932;2024-03-06T12:15:30;10.17;;;7.23;;
7173;SDS011;3628;48.654;8.932;2024-03-06T12:17:55;10.40;;;6.70;;
7173;SDS011;3628;48.654;8.932;2024-03-06T12:20:21;8.10;;;6.50;;
7173;SDS011;3628;48.654;8.932;2024-03-06T12:22:52;7.77;;;6.27;;
7173;SDS011;3628;48.654;8.932;2024-03-06T12:25:21;7.10;;;5.93;;
7173;SDS011;3628;48.654;8.932;2024-03-06T12:27:48;8.30;;;6.10;;
7173;SDS011;3628;48.654;8.932;2024-03-06T12:30:18;6.27;;;5.53;;
7173;SDS011;3628;48.654;8.932;2024-03-06T12:32:58;8.07;;;6.17;;
7173;SDS011;3628;48.654;8.932;2024-03-06T12:35:25;6.40;;;5.33;;
7173;SDS011;3628;48.654;8.932;2024-03-06T12:37:51;7.27;;;5.70;;
7173;SDS011;3628;48.654;8.932;2024-03-06T12:40:17;11.67;;;6.00;;
7173;SDS011;3628;48.654;8.932;2024-03-06T12:42:43;7.43;;;5.47;;
7173;SDS011;3628;48.654;8.932;2024-03-06T12:45:10;9.13;;;6.30;;
7173;SDS011;3628;48.654;8.932;2024-03-06T12:47:40;8.23;;;6.03;;
7173;SDS011;3628;48.654;8.932;2024-03-06T12:50:10;8.73;;;6.67;;
7173;SDS011;3628;48.654;8.932;2024-03-06T12:52:39;9.07;;;6.50;;
7173;SDS011;3628;48.654;8.932;2024-03-06T12:55:05;7.50;;;6.33;;
7173;SDS011;3628;48.654;8.932;2024-03-06T12:57:31;8.23;;;6.03;;
7173;SDS011;3628;48.654;8.932;2024-03-06T12:59:57;9.70;;;6.67;;
7173;SDS011;3628;48.654;8.932;2024-03-06T13:02:23;7.93;;;7.10;;
7173;SDS011;3628;48.654;8.932;2024-03-06T13:04:49;8.00;;;6.97;;
7173;SDS011;3628;48.654;8.932;2024-03-06T13:07:14;12.13;;;7.10;;
7173;SDS011;3628;48.654;8.932;2024-03-06T13:09:40;10.00;;;7.23;;
7173;SDS011;3628;48.654;8.932;2024-03-06T13:12:06;8.30;;;6.87;;
7173;SDS011;3628;48.654;8.932;2024-03-06T13:14:31;8.03;;;6.83;;
7173;SDS011;3628;48.654;8.932;2024-03-06T13:16:58;7.30;;;6.57;;
7173;SDS011;3628;48.654;8.932;2024-03-06T13:19:24;9.87;;;6.93;;
7173;SDS011;3628;48.654;8.932;2024-03-06T13:21:50;12.47;;;7.20;;
7173;SDS011;3628;48.654;8.932;2024-03-06T13:24:15;10.90;;;6.97;;
7173;SDS011;3628;48.654;8.932;2024-03-06T13:26:41;8.90;;;6.47;;
7173;SDS011;3628;48.654;8.932;2024-03-06T13:29:06;10.17;;;7.07;;
7173;SDS011;3628;48.654;8.932;2024-03-06T13:31:32;7.43;;;6.70;;
7173;SDS011;3628;48.654;8.932;2024-03-06T13:34:02;8.87;;;7.03;;
7173;SDS011;3628;48.654;8.932;2024-03-06T13:36:28;7.53;;;6.77;;
7173;SDS011;3628;48.654;8.932;2024-03-06T13:38:54;9.17;;;7.57;;
7173;SDS011;3628;48.654;8.932;2024-03-06T13:41:20;9.23;;;6.97;;
7173;SDS011;3628;48.654;8.932;2024-03-06T13:43:46;11.23;;;6.93;;
7173;SDS011;3628;48.654;8.932;2024-03-06T13:46:11;7.80;;;6.67;;
7173;SDS011;3628;48.654;8.932;2024-03-06T13:48:37;11.80;;;7.60;;
7173;SDS011;3628;48.654;8.932;2024-03-06T13:51:03;12.30;;;8.20;;
7173;SDS011;3628;48.654;8.932;2024-03-06T13:53:29;11.67;;;6.93;;
7173;SDS011;3628;48.654;8.932;2024-03-06T13:55:55;12.67;;;6.57;;
7173;SDS011;3628;48.654;8.932;2024-03-06T13:58:20;8.93;;;6.73;;
7173;SDS011;3628;48.654;8.932;2024-03-06T14:00:46;9.77;;;6.80;;
7173;SDS011;3628;48.654;8.932;2024-03-06T14:03:12;8.07;;;6.37;;
7173;SDS011;3628;48.654;8.932;2024-03-06T14:05:38;9.50;;;6.57;;
7173;SDS011;3628;48.654;8.932;2024-03-06T14:08:04;8.23;;;6.50;;
7173;SDS011;3628;48.654;8.932;2024-03-06T14:10:30;7.73;;;6.47;;
7173;SDS011;3628;48.654;8.932;2024-03-06T14:12:59;10.43;;;7.13;;
7173;SDS011;3628;48.654;8.932;2024-03-06T14:15:25;8.73;;;6.33;;
7173;SDS011;3628;48.654;8.932;2024-03-06T14:17:51;9.13;;;7.07;;
7173;SDS011;3628;48.654;8.932;2024-03-06T14:20:19;9.13;;;7.00;;
7173;SDS011;3628;48.654;8.932;2024-03-06T14:22:45;10.97;;;7.33;;
7173;SDS011;3628;48.654;8.932;2024-03-06T14:25:11;8.33;;;6.43;;
7173;SDS011;3628;48.654;8.932;2024-03-06T14:27:36;8.17;;;6.90;;
7173;SDS011;3628;48.654;8.932;2024-03-06T14:30:03;9.20;;;7.07;;
7173;SDS011;3628;48.654;8.932;2024-03-06T14:32:29;10.23;;;7.70;;
7173;SDS011;3628;48.654;8.932;2024-03-06T14:34:55;9.37;;;6.33;;
7173;SDS011;3628;48.654;8.932;2024-03-06T14:37:20;8.97;;;7.53;;
7173;SDS011;3628;48.654;8.932;2024-03-06T14:39:46;11.90;;;8.10;;
7173;SDS011;3628;48.654;8.932;2024-03-06T14:42:12;10.70;;;7.40;;
7173;SDS011;3628;48.654;8.932;2024-03-06T14:44:37;10.23;;;7.10;;
7173;SDS011;3628;48.654;8.932;2024-03-06T14:47:03;10.00;;;7.40;;
7173;SDS011;3628;48.654;8.932;2024-03-06T14:49:30;10.70;;;7.97;;
7173;SDS011;3628;48.654;8.932;2024-03-06T14:51:56;7.60;;;6.17;;
7173;SDS011;3628;48.654;8.932;2024-03-06T14:54:22;8.00;;;7.20;;
7173;SDS011;3628;48.654;8.932;2024-03-06T14:56:51;9.10;;;6.53;;
7173;SDS011;3628;48.654;8.932;2024-03-06T14:59:17;9.53;;;7.00;;
7173;SDS011;3628;48.654;8.932;2024-03-06T15:01:43;8.03;;;6.80;;
7173;SDS011;3628;48.654;8.932;2024-03-06T15:04:09;9.77;;;7.00;;
7173;SDS011;3628;48.654;8.932;2024-03-06T15:06:37;8.60;;;7.70;;
7173;SDS011;3628;48.654;8.932;2024-03-06T15:09:03;8.10;;;7.23;;
7173;SDS011;3628;48.654;8.932;2024-03-06T15:11:29;9.83;;;7.87;;
7173;SDS011;3628;48.654;8.932;2024-03-06T15:13:58;8.97;;;7.33;;
7173;SDS011;3628;48.654;8.932;2024-03-06T15:16:23;10.33;;;7.73;;
7173;SDS011;3628;48.654;8.932;2024-03-06T15:18:49;8.27;;;6.77;;
7173;SDS011;3628;48.654;8.932;2024-03-06T15:21:16;12.00;;;7.37;;
7173;SDS011;3628;48.654;8.932;2024-03-06T15:23:42;8.73;;;6.97;;
7173;SDS011;3628;48.654;8.932;2024-03-06T15:26:08;11.03;;;7.93;;
7173;SDS011;3628;48.654;8.932;2024-03-06T15:28:33;9.57;;;7.13;;